Time;durP1;ratioP1;P1;durP2;ratioP2;P2;SDS_P1;SDS_P2;PMS_P1;PMS_P2;Temp;Humidity;BMP_temperature;BMP_pressure;BME280_temperature;BME280_humidity;BME280_pressure;Samples;Min_cycle;Max_cycle;Signal;HPM_P1;HPM_P2
2021/10/23 00:01:55;;;;;;;2.67;1.50;;;;;;;;;;5069634;28;20027;-52
2021/10/23 00:04:21;;;;;;;2.03;1.27;;;;;;;;;;5069503;28;20020;-53
2021/10/23 00:06:47;;;;;;;2.90;1.40;;;;;;;;;;5069703;28;20056;-53
2021/10/23 00:09:13;;;;;;;2.55;1.30;;;;;;;;;;5075536;28;20521;-53
2021/10/23 00:11:39;;;;;;;2.42;1.15;;;;;;;;;;5089647;28;20030;-53
2021/10/23 00:14:05;;;;;;;2.03;1.08;;;;;;;;;;5080618;28;20093;-52
2021/10/23 00:16:31;;;;;;;1.50;0.90;;;;;;;;;;5069297;28;20060;-50
2021/10/23 00:18:57;;;;;;;2.05;0.90;;;;;;;;;;5068753;28;20086;-52
2021/10/23 00:21:23;;;;;;;1.50;1.05;;;;;;;;;;5069224;28;20020;-50
2021/10/23 00:23:49;;;;;;;1.85;1.00;;;;;;;;;;5069307;28;20383;-52
2021/10/23 00:26:15;;;;;;;1.88;1.00;;;;;;;;;;5068705;28;20491;-53
2021/10/23 00:28:41;;;;;;;1.52;1.00;;;;;;;;;;5069232;28;20399;-53
2021/10/23 00:31:08;;;;;;;2.28;1.13;;;;;;;;;;5087772;28;20080;-52
2021/10/23 00:33:34;;;;;;;2.95;1.58;;;;;;;;;;5083613;28;20024;-53
2021/10/23 00:36:00;;;;;;;3.40;0.95;;;;;;;;;;5068837;28;20021;-52
2021/10/23 00:38:26;;;;;;;3.08;1.20;;;;;;;;;;5069061;28;20745;-52
2021/10/23 00:40:52;;;;;;;3.17;1.10;;;;;;;;;;5068542;28;20086;-52
2021/10/23 00:43:19;;;;;;;2.53;1.23;;;;;;;;;;5068677;28;20498;-53
2021/10/23 00:45:45;;;;;;;3.53;1.15;;;;;;;;;;5068298;28;20491;-53
2021/10/23 00:48:11;;;;;;;2.75;1.00;;;;;;;;;;5067970;28;20040;-53
2021/10/23 00:50:37;;;;;;;4.07;1.63;;;;;;;;;;5068334;28;20122;-50
2021/10/23 00:53:03;;;;;;;2.97;1.23;;;;;;;;;;5069091;28;20032;-52
2021/10/23 00:55:30;;;;;;;2.55;1.30;;;;;;;;;;5068697;28;20024;-52
2021/10/23 00:57:56;;;;;;;1.80;0.90;;;;;;;;;;5068507;28;20113;-52
2021/10/23 01:00:22;;;;;;;2.15;1.25;;;;;;;;;;5068114;28;20418;-50
2021/10/23 01:02:48;;;;;;;2.97;1.10;;;;;;;;;;5068467;28;20105;-53
2021/10/23 01:05:14;;;;;;;2.35;1.13;;;;;;;;;;5067636;28;20563;-52
2021/10/23 01:07:40;;;;;;;3.25;1.10;;;;;;;;;;5068333;28;20050;-53
2021/10/23 01:10:08;;;;;;;3.05;1.25;;;;;;;;;;5068779;28;20024;-54
2021/10/23 01:12:34;;;;;;;1.70;1.00;;;;;;;;;;5068772;28;20052;-50
2021/10/23 01:15:14;;;;;;;2.97;1.20;;;;;;;;;;5068796;28;20027;-52
2021/10/23 01:17:40;;;;;;;2.58;1.20;;;;;;;;;;5068553;28;20025;-53
2021/10/23 01:20:07;;;;;;;1.30;0.98;;;;;;;;;;5074022;28;20027;-53
2021/10/23 01:22:33;;;;;;;1.17;0.88;;;;;;;;;;5089292;28;20024;-53
2021/10/23 01:24:59;;;;;;;1.83;1.00;;;;;;;;;;5088044;28;20020;-52
2021/10/23 01:27:25;;;;;;;1.73;0.77;;;;;;;;;;5076228;28;20451;-52
2021/10/23 01:29:51;;;;;;;1.92;1.00;;;;;;;;;;5067829;28;20013;-51
2021/10/23 01:32:17;;;;;;;2.03;1.15;;;;;;;;;;5067034;28;20241;-51
2021/10/23 01:34:43;;;;;;;3.05;1.20;;;;;;;;;;5066823;28;20025;-53
2021/10/23 01:37:09;;;;;;;1.52;1.13;;;;;;;;;;5067293;28;20093;-52
2021/10/23 01:39:35;;;;;;;2.97;1.00;;;;;;;;;;5068584;28;20415;-51
2021/10/23 01:42:02;;;;;;;2.70;1.13;;;;;;;;;;5067918;28;20472;-52
2021/10/23 01:44:30;;;;;;;2.03;1.30;;;;;;;;;;5067995;28;20127;-52
2021/10/23 01:46:56;;;;;;;2.40;1.35;;;;;;;;;;5067372;28;20333;-53
2021/10/23 01:49:22;;;;;;;2.58;1.27;;;;;;;;;;5067145;28;20029;-52
2021/10/23 01:51:49;;;;;;;2.35;1.05;;;;;;;;;;5067150;28;20033;-52
2021/10/23 01:54:16;;;;;;;4.60;1.60;;;;;;;;;;5066789;28;20070;-51
2021/10/23 01:56:42;;;;;;;2.72;1.30;;;;;;;;;;5066560;28;20039;-51
2021/10/23 01:59:09;;;;;;;2.50;1.23;;;;;;;;;;5066978;28;20024;-52
2021/10/23 02:01:35;;;;;;;4.88;1.45;;;;;;;;;;5068185;28;20127;-53
2021/10/23 02:04:01;;;;;;;2.67;1.30;;;;;;;;;;5074507;28;20028;-52
2021/10/23 02:06:28;;;;;;;4.28;1.40;;;;;;;;;;5087694;28;20027;-52
2021/10/23 02:08:54;;;;;;;3.63;1.48;;;;;;;;;;5087560;28;20486;-52
2021/10/23 02:11:20;;;;;;;2.95;1.30;;;;;;;;;;5085664;28;20108;-53
2021/10/23 02:13:46;;;;;;;2.45;1.20;;;;;;;;;;5067215;28;20572;-53
2021/10/23 02:16:13;;;;;;;2.40;1.48;;;;;;;;;;5066775;28;20508;-53
2021/10/23 02:18:39;;;;;;;3.10;1.50;;;;;;;;;;5083324;28;20090;-52
2021/10/23 02:21:06;;;;;;;1.88;1.10;;;;;;;;;;5087488;28;20035;-53
2021/10/23 02:23:33;;;;;;;2.08;1.10;;;;;;;;;;5076435;28;20020;-52
2021/10/23 02:25:59;;;;;;;2.78;1.23;;;;;;;;;;5066921;28;20494;-52
2021/10/23 02:28:25;;;;;;;3.28;1.48;;;;;;;;;;5081053;28;20043;-53
2021/10/23 02:30:51;;;;;;;2.83;1.20;;;;;;;;;;5087325;28;20037;-50
2021/10/23 02:33:18;;;;;;;3.63;1.23;;;;;;;;;;5086728;28;20031;-52
2021/10/23 02:35:44;;;;;;;2.83;1.30;;;;;;;;;;5087145;28;20051;-53
2021/10/23 02:38:10;;;;;;;3.45;1.27;;;;;;;;;;5073740;28;20032;-51
2021/10/23 02:40:38;;;;;;;3.20;1.30;;;;;;;;;;5066780;28;20036;-53
2021/10/23 02:43:04;;;;;;;2.75;1.35;;;;;;;;;;5067077;28;20100;-51
2021/10/23 02:45:30;;;;;;;2.08;1.38;;;;;;;;;;5066223;28;20028;-53
2021/10/23 02:47:57;;;;;;;4.78;1.63;;;;;;;;;;5065002;28;20111;-52
2021/10/23 02:50:23;;;;;;;2.30;1.25;;;;;;;;;;5065560;28;20107;-51
2021/10/23 02:52:49;;;;;;;3.45;1.67;;;;;;;;;;5066822;28;20028;-52
2021/10/23 02:55:15;;;;;;;2.05;1.40;;;;;;;;;;5066290;28;20313;-52
2021/10/23 02:57:41;;;;;;;2.60;1.23;;;;;;;;;;5066289;28;20016;-53
2021/10/23 03:00:08;;;;;;;3.97;1.42;;;;;;;;;;5066283;28;20115;-51
2021/10/23 03:02:34;;;;;;;2.20;1.30;;;;;;;;;;5066944;28;20029;-52
2021/10/23 03:05:02;;;;;;;3.78;1.42;;;;;;;;;;5066310;28;20048;-52
2021/10/23 03:07:29;;;;;;;2.80;1.30;;;;;;;;;;5066163;28;20024;-51
2021/10/23 03:09:55;;;;;;;2.55;1.30;;;;;;;;;;5065905;28;20028;-50
2021/10/23 03:12:21;;;;;;;2.83;1.40;;;;;;;;;;5066451;28;20503;-53
2021/10/23 03:14:47;;;;;;;4.68;1.58;;;;;;;;;;5066590;28;20434;-53
2021/10/23 03:17:13;;;;;;;2.20;1.40;;;;;;;;;;5079745;28;20020;-52
2021/10/23 03:19:39;;;;;;;3.85;1.73;;;;;;;;;;5086255;28;20415;-52
2021/10/23 03:22:05;;;;;;;4.03;1.92;;;;;;;;;;5075527;28;20380;-52
2021/10/23 03:24:31;;;;;;;3.42;1.55;;;;;;;;;;5066153;28;20032;-53
2021/10/23 03:26:57;;;;;;;3.22;1.70;;;;;;;;;;5065935;28;20020;-51
2021/10/23 03:29:23;;;;;;;2.67;1.70;;;;;;;;;;5065919;28;20036;-52
2021/10/23 03:31:50;;;;;;;3.08;1.70;;;;;;;;;;5066124;28;20032;-52
2021/10/23 03:34:16;;;;;;;3.42;1.85;;;;;;;;;;5065792;28;20032;-52
2021/10/23 03:36:42;;;;;;;2.90;1.63;;;;;;;;;;5066268;28;20706;-51
2021/10/23 03:39:08;;;;;;;3.65;1.75;;;;;;;;;;5066190;28;20091;-52
2021/10/23 03:41:35;;;;;;;3.80;2.03;;;;;;;;;;5066515;28;20813;-50
2021/10/23 03:44:01;;;;;;;4.10;1.90;;;;;;;;;;5066225;28;20055;-52
2021/10/23 03:46:27;;;;;;;3.13;1.58;;;;;;;;;;5065795;28;20020;-52
2021/10/23 03:48:53;;;;;;;4.22;2.03;;;;;;;;;;5082946;28;20491;-53
2021/10/23 03:51:19;;;;;;;4.70;2.13;;;;;;;;;;5086153;28;20375;-51
2021/10/23 03:53:45;;;;;;;2.95;1.65;;;;;;;;;;5067474;28;20503;-49
2021/10/23 03:56:11;;;;;;;3.35;2.20;;;;;;;;;;5066190;28;20057;-51
2021/10/23 03:58:37;;;;;;;4.35;2.50;;;;;;;;;;5080455;28;20036;-50
2021/10/23 04:01:03;;;;;;;5.70;2.40;;;;;;;;;;5086705;28;20051;-49
2021/10/23 04:03:29;;;;;;;3.67;2.15;;;;;;;;;;5072374;28;20457;-53
2021/10/23 04:05:55;;;;;;;4.80;1.90;;;;;;;;;;5066043;28;20021;-49
2021/10/23 04:08:21;;;;;;;3.75;2.05;;;;;;;;;;5065585;28;20035;-51
2021/10/23 04:10:47;;;;;;;3.38;2.17;;;;;;;;;;5065475;28;20399;-53
2021/10/23 04:13:15;;;;;;;5.47;2.10;;;;;;;;;;5069728;28;20039;-49
2021/10/23 04:15:41;;;;;;;3.10;1.80;;;;;;;;;;5069039;28;20529;-52
2021/10/23 04:18:07;;;;;;;2.28;1.80;;;;;;;;;;5069945;28;20030;-52
2021/10/23 04:20:33;;;;;;;3.80;1.90;;;;;;;;;;5087455;28;20032;-52
2021/10/23 04:22:59;;;;;;;2.78;1.88;;;;;;;;;;5089879;28;20073;-52
2021/10/23 04:25:25;;;;;;;4.18;1.85;;;;;;;;;;5089338;28;20047;-50
2021/10/23 04:27:51;;;;;;;4.00;1.60;;;;;;;;;;5088604;28;20463;-51
2021/10/23 04:30:18;;;;;;;4.60;1.90;;;;;;;;;;5068906;28;20035;-52
2021/10/23 04:32:44;;;;;;;2.65;1.83;;;;;;;;;;5068107;28;20150;-53
2021/10/23 04:35:10;;;;;;;3.67;2.20;;;;;;;;;;5068179;28;20453;-51
2021/10/23 04:37:36;;;;;;;5.85;2.38;;;;;;;;;;5069239;28;20092;-51
2021/10/23 04:40:02;;;;;;;3.47;1.80;;;;;;;;;;5069612;28;20033;-53
2021/10/23 04:42:28;;;;;;;5.57;2.10;;;;;;;;;;5068779;28;20097;-52
2021/10/23 04:44:55;;;;;;;3.53;1.75;;;;;;;;;;5069131;28;20031;-53
2021/10/23 04:47:22;;;;;;;2.95;1.90;;;;;;;;;;5068496;28;20096;-52
2021/10/23 04:49:48;;;;;;;3.60;2.35;;;;;;;;;;5067332;28;20502;-52
2021/10/23 04:52:14;;;;;;;3.80;2.20;;;;;;;;;;5068839;28;20044;-52
2021/10/23 04:54:40;;;;;;;2.70;1.92;;;;;;;;;;5068188;28;20411;-52
2021/10/23 04:57:06;;;;;;;4.72;1.88;;;;;;;;;;5069038;28;20075;-52
2021/10/23 04:59:32;;;;;;;2.85;1.98;;;;;;;;;;5068998;28;20066;-52
2021/10/23 05:01:58;;;;;;;3.03;1.80;;;;;;;;;;5068176;28;20447;-51
2021/10/23 05:04:24;;;;;;;2.90;1.70;;;;;;;;;;5068589;28;20467;-52
2021/10/23 05:06:50;;;;;;;3.38;2.03;;;;;;;;;;5067237;28;20659;-53
2021/10/23 05:09:16;;;;;;;2.90;2.10;;;;;;;;;;5068284;28;20063;-51
2021/10/23 05:11:43;;;;;;;4.40;2.00;;;;;;;;;;5068581;28;20052;-51
2021/10/23 05:14:10;;;;;;;2.92;1.83;;;;;;;;;;5068539;28;20086;-53
2021/10/23 05:16:36;;;;;;;2.45;1.70;;;;;;;;;;5068086;28;20029;-52
2021/10/23 05:19:02;;;;;;;4.32;1.80;;;;;;;;;;5068722;28;20487;-52
2021/10/23 05:21:28;;;;;;;3.08;1.98;;;;;;;;;;5067788;28;20762;-53
2021/10/23 05:23:57;;;;;;;3.45;1.92;;;;;;;;;;5067797;28;20380;-52
2021/10/23 05:26:23;;;;;;;3.65;2.10;;;;;;;;;;5067922;28;20027;-52
2021/10/23 05:28:49;;;;;;;3.17;1.95;;;;;;;;;;5068165;28;20059;-51
2021/10/23 05:31:15;;;;;;;3.55;1.85;;;;;;;;;;5066992;28;20510;-52
2021/10/23 05:33:41;;;;;;;3.83;2.08;;;;;;;;;;5068047;28;20024;-50
2021/10/23 05:36:07;;;;;;;2.95;1.88;;;;;;;;;;5068004;28;20105;-52
2021/10/23 05:38:33;;;;;;;3.03;1.90;;;;;;;;;;5067714;28;20504;-51
2021/10/23 05:40:59;;;;;;;4.25;2.00;;;;;;;;;;5067629;28;20060;-51
2021/10/23 05:43:26;;;;;;;3.55;1.80;;;;;;;;;;5067662;28;20031;-52
2021/10/23 05:45:52;;;;;;;3.58;2.13;;;;;;;;;;5067558;28;20020;-51
2021/10/23 05:48:19;;;;;;;2.35;1.40;;;;;;;;;;5067218;28;20031;-53
2021/10/23 05:50:45;;;;;;;3.63;1.98;;;;;;;;;;5067824;28;20056;-51
2021/10/23 05:53:11;;;;;;;2.67;2.00;;;;;;;;;;5070625;28;20421;-49
2021/10/23 05:55:37;;;;;;;4.55;2.22;;;;;;;;;;5067316;28;20032;-52
2021/10/23 05:58:04;;;;;;;3.28;1.90;;;;;;;;;;5073739;28;20028;-52
2021/10/23 06:00:34;;;;;;;3.92;1.98;;;;;;;;;;5087270;28;20035;-53
2021/10/23 06:03:01;;;;;;;4.13;1.95;;;;;;;;;;5068016;28;20020;-50
2021/10/23 06:05:27;;;;;;;2.53;1.67;;;;;;;;;;5067160;28;20486;-51
2021/10/23 06:07:54;;;;;;;3.10;2.00;;;;;;;;;;5067573;28;20020;-53
2021/10/23 06:10:20;;;;;;;5.13;2.10;;;;;;;;;;5065686;28;20036;-49
2021/10/23 06:12:46;;;;;;;3.13;1.77;;;;;;;;;;5066978;28;20446;-49
2021/10/23 06:15:13;;;;;;;2.58;1.70;;;;;;;;;;5066751;28;20040;-51
2021/10/23 06:17:40;;;;;;;2.38;1.67;;;;;;;;;;5067060;28;20435;-50
2021/10/23 06:20:06;;;;;;;2.67;1.90;;;;;;;;;;5077642;28;20033;-52
2021/10/23 06:22:32;;;;;;;3.72;2.35;;;;;;;;;;5065790;28;20059;-51
2021/10/23 06:24:59;;;;;;;2.83;1.85;;;;;;;;;;5067094;28;20107;-50
2021/10/23 06:27:26;;;;;;;3.78;1.83;;;;;;;;;;5066627;28;20028;-52
2021/10/23 06:29:52;;;;;;;3.15;2.10;;;;;;;;;;5065237;28;20025;-49
2021/10/23 06:32:18;;;;;;;4.53;1.80;;;;;;;;;;5066255;28;20384;-49
2021/10/23 06:34:44;;;;;;;2.63;1.67;;;;;;;;;;5066737;28;20564;-52
2021/10/23 06:37:10;;;;;;;5.13;2.22;;;;;;;;;;5076293;28;20024;-52
2021/10/23 06:39:37;;;;;;;3.30;1.95;;;;;;;;;;5086161;28;20055;-51
2021/10/23 06:42:03;;;;;;;3.35;2.00;;;;;;;;;;5086937;28;20039;-53
2021/10/23 06:44:29;;;;;;;5.25;2.03;;;;;;;;;;5085925;28;20020;-51
2021/10/23 06:46:55;;;;;;;4.75;2.10;;;;;;;;;;5086741;28;20027;-50
2021/10/23 06:49:21;;;;;;;3.53;1.77;;;;;;;;;;5085994;28;20425;-50
2021/10/23 06:51:47;;;;;;;3.95;2.20;;;;;;;;;;5086736;28;20380;-52
2021/10/23 06:54:13;;;;;;;3.10;1.90;;;;;;;;;;5086963;28;20461;-53
2021/10/23 06:56:40;;;;;;;4.15;2.50;;;;;;;;;;5086795;28;20020;-49
2021/10/23 06:59:06;;;;;;;4.47;2.72;;;;;;;;;;5087231;28;20032;-49
2021/10/23 07:01:32;;;;;;;4.30;2.65;;;;;;;;;;5086690;28;20031;-49
2021/10/23 07:03:59;;;;;;;3.85;2.20;;;;;;;;;;5085258;28;20028;-51
2021/10/23 07:06:25;;;;;;;5.88;2.95;;;;;;;;;;5086138;28;20042;-50
2021/10/23 07:08:51;;;;;;;5.70;3.53;;;;;;;;;;5086681;28;20035;-51
2021/10/23 07:11:17;;;;;;;5.72;3.30;;;;;;;;;;5086073;28;20028;-51
2021/10/23 07:13:43;;;;;;;5.53;3.60;;;;;;;;;;5076231;28;20052;-52
2021/10/23 07:16:10;;;;;;;9.00;4.45;;;;;;;;;;5065961;28;20025;-49
2021/10/23 07:18:37;;;;;;;7.00;4.03;;;;;;;;;;5066371;28;20028;-53
2021/10/23 07:21:03;;;;;;;6.53;3.30;;;;;;;;;;5066908;28;20104;-49
2021/10/23 07:23:29;;;;;;;6.22;3.28;;;;;;;;;;5075388;28;20046;-53
2021/10/23 07:25:57;;;;;;;5.70;3.08;;;;;;;;;;5083537;28;20027;-49
2021/10/23 07:28:23;;;;;;;5.63;3.20;;;;;;;;;;5085742;28;20109;-50
2021/10/23 07:30:50;;;;;;;6.28;3.20;;;;;;;;;;5075096;28;20068;-49
2021/10/23 07:33:16;;;;;;;4.25;2.60;;;;;;;;;;5086375;28;20028;-50
2021/10/23 07:35:42;;;;;;;4.78;2.47;;;;;;;;;;5098639;28;20382;-53
2021/10/23 07:38:09;;;;;;;4.93;3.15;;;;;;;;;;5078507;28;20031;-52
2021/10/23 07:40:35;;;;;;;4.50;3.17;;;;;;;;;;5079226;28;20420;-52
2021/10/23 07:43:01;;;;;;;4.18;2.90;;;;;;;;;;5071433;28;20029;-53
2021/10/23 07:45:27;;;;;;;5.38;2.50;;;;;;;;;;5085856;28;20101;-53
2021/10/23 07:47:53;;;;;;;3.63;2.38;;;;;;;;;;5089476;28;20042;-53
2021/10/23 07:50:20;;;;;;;3.95;2.13;;;;;;;;;;5071158;28;20134;-53
2021/10/23 07:52:46;;;;;;;3.38;1.85;;;;;;;;;;5084027;28;20020;-54
2021/10/23 07:55:12;;;;;;;2.47;1.58;;;;;;;;;;5082206;28;20804;-53
2021/10/23 07:57:39;;;;;;;3.20;2.00;;;;;;;;;;5081736;28;20021;-52
2021/10/23 08:00:06;;;;;;;3.25;2.00;;;;;;;;;;5077992;28;20021;-54
2021/10/23 08:02:32;;;;;;;3.85;2.03;;;;;;;;;;5085971;28;20074;-53
2021/10/23 08:04:58;;;;;;;2.55;1.65;;;;;;;;;;5082971;28;20108;-54
2021/10/23 08:07:24;;;;;;;2.25;1.50;;;;;;;;;;5088811;28;20025;-54
2021/10/23 08:09:50;;;;;;;2.58;1.77;;;;;;;;;;5088547;28;20074;-54
2021/10/23 08:12:16;;;;;;;2.10;1.83;;;;;;;;;;5088187;28;20059;-54
2021/10/23 08:14:42;;;;;;;3.45;1.88;;;;;;;;;;5070579;28;20036;-53
2021/10/23 08:17:08;;;;;;;2.67;1.75;;;;;;;;;;5074924;28;20028;-51
2021/10/23 08:19:35;;;;;;;3.38;1.80;;;;;;;;;;5081429;28;20615;-51
2021/10/23 08:22:01;;;;;;;2.67;1.40;;;;;;;;;;5087265;28;20097;-53
2021/10/23 08:24:27;;;;;;;2.83;1.90;;;;;;;;;;5067233;28;20063;-54
2021/10/23 08:26:53;;;;;;;3.05;1.77;;;;;;;;;;5074329;28;20154;-53
2021/10/23 08:29:20;;;;;;;4.40;1.65;;;;;;;;;;5073793;28;20028;-50
2021/10/23 08:31:46;;;;;;;2.13;1.40;;;;;;;;;;5072165;28;20056;-52
2021/10/23 08:34:12;;;;;;;2.35;1.50;;;;;;;;;;5068784;28;20392;-52
2021/10/23 08:36:38;;;;;;;4.38;1.83;;;;;;;;;;5072249;28;20125;-51
2021/10/23 08:39:05;;;;;;;2.08;1.50;;;;;;;;;;5069407;28;20031;-50
2021/10/23 08:41:32;;;;;;;2.80;1.70;;;;;;;;;;5074639;28;20115;-51
2021/10/23 08:44:02;;;;;;;3.00;1.90;;;;;;;;;;5088858;28;20384;-54
2021/10/23 08:46:29;;;;;;;2.70;1.98;;;;;;;;;;5086291;28;20024;-53
2021/10/23 08:48:56;;;;;;;3.05;1.60;;;;;;;;;;5076165;28;20033;-53
2021/10/23 08:51:22;;;;;;;2.97;1.48;;;;;;;;;;5076223;28;20028;-52
2021/10/23 08:53:49;;;;;;;2.85;1.60;;;;;;;;;;5067439;28;20040;-50
2021/10/23 08:56:15;;;;;;;2.58;1.60;;;;;;;;;;5080619;28;20020;-50
2021/10/23 08:58:45;;;;;;;2.85;1.60;;;;;;;;;;5088530;28;20056;-47
2021/10/23 09:01:12;;;;;;;2.33;1.63;;;;;;;;;;5085021;28;20024;-51
2021/10/23 09:03:40;;;;;;;3.13;1.60;;;;;;;;;;5087747;28;20089;-49
2021/10/23 09:06:10;;;;;;;2.78;1.73;;;;;;;;;;5088415;28;20024;-50
2021/10/23 09:08:36;;;;;;;2.72;1.52;;;;;;;;;;5075155;28;20418;-51
2021/10/23 09:11:02;;;;;;;4.30;2.17;;;;;;;;;;5071005;28;20040;-50
2021/10/23 09:13:30;;;;;;;3.53;1.92;;;;;;;;;;5081325;28;20043;-48
2021/10/23 09:15:57;;;;;;;2.70;1.90;;;;;;;;;;5069381;28;20033;-50
2021/10/23 09:18:43;;;;;;;3.35;1.95;;;;;;;;;;5070417;28;20123;-51
2021/10/23 09:21:23;;;;;;;3.45;1.90;;;;;;;;;;5078152;28;20028;-52
2021/10/23 09:23:49;;;;;;;3.17;1.63;;;;;;;;;;5087549;28;20055;-53
2021/10/23 09:26:37;;;;;;;2.83;1.70;;;;;;;;;;5084511;28;20024;-52
2021/10/23 09:29:25;;;;;;;3.50;1.95;;;;;;;;;;5109503;28;20078;-52
2021/10/23 09:31:52;;;;;;;2.03;1.50;;;;;;;;;;5086356;28;20030;-52
2021/10/23 09:34:18;;;;;;;2.72;1.60;;;;;;;;;;5074164;28;20043;-52
2021/10/23 09:36:49;;;;;;;3.30;1.75;;;;;;;;;;5067395;28;20051;-51
2021/10/23 09:39:24;;;;;;;3.03;1.65;;;;;;;;;;5066617;28;20108;-50
2021/10/23 09:42:08;;;;;;;2.97;1.90;;;;;;;;;;5066987;28;20021;-52
2021/10/23 09:44:36;;;;;;;6.50;3.10;;;;;;;;;;5067144;28;20024;-53
2021/10/23 09:47:02;;;;;;;4.38;2.25;;;;;;;;;;5077338;28;20107;-52
2021/10/23 09:49:28;;;;;;;5.43;2.92;;;;;;;;;;5074368;28;20028;-52
2021/10/23 09:52:05;;;;;;;4.43;2.47;;;;;;;;;;5072182;28;20020;-51
2021/10/23 09:54:31;;;;;;;3.10;2.10;;;;;;;;;;5065577;28;20094;-52
2021/10/23 09:56:57;;;;;;;4.68;2.42;;;;;;;;;;5070357;28;20085;-52
2021/10/23 09:59:27;;;;;;;3.97;1.90;;;;;;;;;;5083478;28;20448;-52
2021/10/23 10:01:56;;;;;;;3.08;1.88;;;;;;;;;;5074727;28;20075;-52
2021/10/23 10:04:24;;;;;;;4.05;1.83;;;;;;;;;;5067682;28;20044;-52
2021/10/23 10:06:51;;;;;;;2.20;1.42;;;;;;;;;;5068135;28;20044;-52
2021/10/23 10:09:18;;;;;;;3.03;1.85;;;;;;;;;;5067036;28;20036;-52
2021/10/23 10:11:48;;;;;;;2.20;1.63;;;;;;;;;;5076590;28;20032;-53
2021/10/23 10:14:14;;;;;;;3.40;1.90;;;;;;;;;;5069071;28;20045;-51
2021/10/23 10:16:44;;;;;;;4.25;1.88;;;;;;;;;;5067699;28;20032;-53
2021/10/23 10:19:13;;;;;;;2.45;1.90;;;;;;;;;;5069495;28;20067;-52
2021/10/23 10:21:40;;;;;;;1.88;1.40;;;;;;;;;;5069374;28;20032;-52
2021/10/23 10:24:15;;;;;;;3.25;1.40;;;;;;;;;;5066223;28;20087;-51
2021/10/23 10:26:43;;;;;;;2.08;1.58;;;;;;;;;;5076377;28;20050;-54
2021/10/23 10:29:14;;;;;;;2.85;1.65;;;;;;;;;;5086102;28;20478;-53
2021/10/23 10:32:02;;;;;;;2.28;1.67;;;;;;;;;;5085099;28;20028;-51
2021/10/23 10:34:39;;;;;;;3.10;2.10;;;;;;;;;;5086050;28;20421;-52
2021/10/23 10:40:29;;;;;;;3.05;2.10;;;;;;;;;;5090728;28;20053;-53
2021/10/23 10:42:59;;;;;;;3.40;1.92;;;;;;;;;;5088123;28;20491;-52
2021/10/23 10:45:51;;;;;;;2.92;1.60;;;;;;;;;;5085949;28;20095;-51
2021/10/23 10:48:26;;;;;;;2.40;1.83;;;;;;;;;;5082731;28;20032;-54
2021/10/23 10:50:52;;;;;;;3.00;2.08;;;;;;;;;;5085930;28;20107;-50
2021/10/23 10:53:42;;;;;;;2.83;1.60;;;;;;;;;;5085616;28;20115;-51
2021/10/23 10:56:12;;;;;;;2.55;1.42;;;;;;;;;;5080566;28;20466;-51
2021/10/23 10:58:43;;;;;;;2.67;1.42;;;;;;;;;;5072870;28;20587;-53
2021/10/23 11:01:10;;;;;;;1.80;1.30;;;;;;;;;;5075810;28;20115;-52
2021/10/23 11:03:36;;;;;;;1.92;1.20;;;;;;;;;;5070940;28;20376;-53
2021/10/23 11:06:26;;;;;;;2.28;1.30;;;;;;;;;;5067635;28;20016;-52
2021/10/23 11:09:10;;;;;;;1.80;1.00;;;;;;;;;;5061703;28;20075;-52
2021/10/23 11:11:37;;;;;;;;;;;;;;;;;;5067413;28;20039;-53
2021/10/23 11:14:03;;;;;;;2.17;1.30;;;;;;;;;;5079393;28;19912;-53
2021/10/23 11:16:34;;;;;;;1.60;1.13;;;;;;;;;;5065367;28;20542;-53
2021/10/23 11:19:00;;;;;;;1.75;1.23;;;;;;;;;;5066575;28;20574;-52
2021/10/23 11:21:27;;;;;;;3.03;1.20;;;;;;;;;;5072015;28;20127;-53
2021/10/23 11:23:54;;;;;;;1.55;1.20;;;;;;;;;;5086095;28;20028;-53
2021/10/23 11:26:20;;;;;;;1.63;1.10;;;;;;;;;;5066451;28;20021;-53
2021/10/23 11:28:47;;;;;;;2.22;1.00;;;;;;;;;;5081564;28;20403;-53
2021/10/23 11:31:20;;;;;;;2.30;1.13;;;;;;;;;;5075022;28;20032;-53
2021/10/23 11:33:46;;;;;;;1.75;1.27;;;;;;;;;;5070619;28;20033;-53
2021/10/23 11:36:19;;;;;;;1.13;0.90;;;;;;;;;;5070643;28;20376;-53
2021/10/23 11:38:49;;;;;;;2.28;1.30;;;;;;;;;;5069785;28;20033;-52
2021/10/23 11:41:22;;;;;;;1.92;1.10;;;;;;;;;;5081494;28;20028;-52
2021/10/23 11:43:48;;;;;;;2.10;1.27;;;;;;;;;;5071627;28;20028;-53
2021/10/23 11:46:15;;;;;;;2.20;1.20;;;;;;;;;;5083125;28;20024;-53
2021/10/23 11:48:41;;;;;;;2.78;1.40;;;;;;;;;;5079994;28;20085;-54
2021/10/23 11:51:07;;;;;;;1.80;1.15;;;;;;;;;;5082597;28;20031;-53
2021/10/23 11:53:34;;;;;;;1.92;1.20;;;;;;;;;;5089116;28;20032;-54
2021/10/23 11:56:03;;;;;;;2.67;1.27;;;;;;;;;;5070455;28;20036;-53
2021/10/23 11:58:30;;;;;;;1.77;1.00;;;;;;;;;;5069930;28;20043;-52
2021/10/23 12:00:59;;;;;;;2.33;1.30;;;;;;;;;;5070324;28;20043;-52
2021/10/23 12:03:30;;;;;;;2.17;1.33;;;;;;;;;;5082975;28;20024;-53
2021/10/23 12:05:56;;;;;;;2.20;1.13;;;;;;;;;;5071081;28;20123;-52
2021/10/23 12:08:23;;;;;;;1.52;1.20;;;;;;;;;;5069620;28;20499;-52
2021/10/23 12:11:09;;;;;;;1.90;1.20;;;;;;;;;;5070182;28;20060;-53
2021/10/23 12:14:02;;;;;;;2.47;1.20;;;;;;;;;;5073781;28;20028;-53
2021/10/23 12:16:33;;;;;;;2.05;1.13;;;;;;;;;;5068954;28;20049;-53
2021/10/23 12:19:13;;;;;;;1.75;1.30;;;;;;;;;;5072944;28;20028;-52
2021/10/23 12:21:39;;;;;;;2.10;1.20;;;;;;;;;;5068863;28;20024;-50
2021/10/23 12:24:16;;;;;;;2.13;1.30;;;;;;;;;;5070634;28;20032;-52
2021/10/23 12:26:43;;;;;;;1.17;0.90;;;;;;;;;;5069975;28;20380;-51
2021/10/23 12:29:10;;;;;;;2.22;1.10;;;;;;;;;;5067864;28;20036;-50
2021/10/23 12:31:55;;;;;;;1.02;0.80;;;;;;;;;;5081095;28;20040;-50
2021/10/23 12:34:21;;;;;;;3.53;1.30;;;;;;;;;;5068587;28;20032;-49
2021/10/23 12:36:52;;;;;;;2.33;1.20;;;;;;;;;;5069981;28;20028;-51
2021/10/23 12:39:19;;;;;;;1.90;0.95;;;;;;;;;;5070049;28;20675;-53
2021/10/23 12:41:45;;;;;;;2.45;1.40;;;;;;;;;;5087081;28;20032;-51
2021/10/23 12:44:16;;;;;;;1.65;1.10;;;;;;;;;;5090205;28;20426;-51
2021/10/23 12:46:42;;;;;;;2.20;1.15;;;;;;;;;;5089818;28;20016;-52
2021/10/23 12:49:08;;;;;;;1.90;1.20;;;;;;;;;;5077439;28;20387;-49
2021/10/23 12:51:34;;;;;;;1.58;1.13;;;;;;;;;;5070809;28;20043;-49
2021/10/23 12:54:01;;;;;;;1.20;1.10;;;;;;;;;;5089791;28;20024;-49
2021/10/23 12:56:27;;;;;;;1.25;0.90;;;;;;;;;;5089449;28;20028;-49
2021/10/23 12:58:53;;;;;;;1.48;0.80;;;;;;;;;;5089823;28;20376;-52
2021/10/23 13:01:19;;;;;;;1.95;1.05;;;;;;;;;;5078624;28;20051;-52
2021/10/23 13:03:45;;;;;;;1.60;1.10;;;;;;;;;;5086755;28;20395;-52
2021/10/23 13:06:11;;;;;;;1.38;0.88;;;;;;;;;;5080253;28;20028;-51
2021/10/23 13:08:37;;;;;;;1.73;0.85;;;;;;;;;;5089164;28;20169;-51
2021/10/23 13:11:03;;;;;;;1.42;0.80;;;;;;;;;;5089310;28;20040;-54
2021/10/23 13:13:30;;;;;;;2.55;1.00;;;;;;;;;;5081279;28;20384;-51
2021/10/23 13:15:56;;;;;;;2.20;0.93;;;;;;;;;;5080670;28;20028;-52
2021/10/23 13:18:22;;;;;;;0.82;0.70;;;;;;;;;;5069892;28;20457;-52
2021/10/23 13:20:48;;;;;;;0.68;0.50;;;;;;;;;;5079053;28;20547;-53
2021/10/23 13:23:14;;;;;;;1.05;0.60;;;;;;;;;;5070385;28;20151;-51
2021/10/23 13:25:40;;;;;;;1.45;0.90;;;;;;;;;;5086284;28;20106;-52
2021/10/23 13:28:06;;;;;;;1.02;0.65;;;;;;;;;;5108380;28;20016;-52
2021/10/23 13:30:32;;;;;;;1.30;0.75;;;;;;;;;;5082912;28;20507;-52
2021/10/23 13:32:58;;;;;;;1.05;0.63;;;;;;;;;;5067655;28;20525;-52
2021/10/23 13:35:24;;;;;;;2.10;0.75;;;;;;;;;;5067650;28;20107;-50
2021/10/23 13:37:50;;;;;;;1.30;0.85;;;;;;;;;;5067709;28;20020;-53
2021/10/23 13:40:16;;;;;;;0.88;0.70;;;;;;;;;;5067289;28;20021;-51
2021/10/23 13:42:43;;;;;;;1.58;0.70;;;;;;;;;;5067084;28;20039;-53
2021/10/23 13:45:12;;;;;;;1.40;0.75;;;;;;;;;;5067538;28;20021;-53
2021/10/23 13:47:38;;;;;;;1.23;0.80;;;;;;;;;;5067277;28;20561;-52
2021/10/23 13:50:04;;;;;;;2.17;0.90;;;;;;;;;;5080281;28;20023;-53
2021/10/23 13:52:33;;;;;;;1.13;0.85;;;;;;;;;;5075200;28;20028;-52
2021/10/23 13:54:59;;;;;;;1.17;0.80;;;;;;;;;;5087321;28;20047;-52
2021/10/23 13:57:26;;;;;;;0.90;0.80;;;;;;;;;;5073381;28;20407;-52
2021/10/23 13:59:53;;;;;;;1.30;0.80;;;;;;;;;;5093259;28;20042;-52
2021/10/23 14:02:19;;;;;;;0.95;0.63;;;;;;;;;;5071078;28;20082;-53
2021/10/23 14:04:45;;;;;;;0.60;0.60;;;;;;;;;;5073812;28;20454;-52
2021/10/23 14:07:11;;;;;;;1.00;0.55;;;;;;;;;;5066761;28;20040;-53
2021/10/23 14:09:37;;;;;;;3.00;0.70;;;;;;;;;;5066960;28;20032;-51
2021/10/23 14:12:03;;;;;;;2.47;0.80;;;;;;;;;;5067491;28;20043;-52
2021/10/23 14:14:30;;;;;;;1.35;0.82;;;;;;;;;;5066163;28;20040;-51
2021/10/23 14:16:57;;;;;;;1.45;0.70;;;;;;;;;;5073241;28;20491;-50
2021/10/23 14:19:24;;;;;;;1.13;0.75;;;;;;;;;;5067611;28;20043;-51
2021/10/23 14:21:52;;;;;;;1.48;0.70;;;;;;;;;;5072746;28;20036;-52
2021/10/23 14:24:19;;;;;;;1.45;1.13;;;;;;;;;;5073043;28;20024;-52
2021/10/23 14:26:48;;;;;;;0.95;0.70;;;;;;;;;;5071912;28;20028;-52
2021/10/23 14:29:14;;;;;;;0.88;0.70;;;;;;;;;;5072359;28;20043;-52
2021/10/23 14:31:41;;;;;;;2.20;0.98;;;;;;;;;;5082450;28;20024;-50
2021/10/23 14:34:08;;;;;;;0.73;0.73;;;;;;;;;;5073620;28;20084;-53
2021/10/23 14:36:34;;;;;;;2.33;0.85;;;;;;;;;;5073649;28;20089;-52
2021/10/23 14:39:04;;;;;;;1.10;0.70;;;;;;;;;;5066478;28;20029;-52
2021/10/23 14:41:30;;;;;;;0.75;0.65;;;;;;;;;;5065435;28;20423;-52
2021/10/23 14:43:56;;;;;;;1.58;0.70;;;;;;;;;;5078715;28;20027;-52
2021/10/23 14:46:23;;;;;;;0.93;0.80;;;;;;;;;;5086169;28;20027;-53
2021/10/23 14:48:49;;;;;;;1.17;0.80;;;;;;;;;;5083228;28;20074;-50